Timpanogos, Utah
Current Conditions -  °F | °C
As of 2:59 PM on Sunday 21 Dec 2014 (Local Time) from KPVU Reporting Station
Rain Showers Rain Showers  
Wind Chill: 38°   Ceiling: 2200
Heat Index: 41°   Visibility: 10mi
Dew Point: 37°   Wind: 5mph
Humidity: 87%   Direction: NA
Pressure: 29.96"   Gusts: NA
Location:  40.4102°N, 111.814°W
Report Text: KPVU 212159Z VRB04KT 10SM VCSH OVC022 05/03 A2996
Loading
Personal Weather Stations






























Interactive Weather Map New forecast layout! Learn more

10-Day Weather Forecast

Advertisements
Track Severe Weather on mobile